Gazi — 9HA2542 — position and weather

sailwx.info

Track history (hours):
 
Tides and Currents Weather Stations Pressure Air Temp Water Temp Dewpoint Dewpoint Depression Visibility Wind Speed Wind Dir Waves Ship Positions

Gazi

Last reported at 2017-May-29 22:25 UTC. Time now 2017-Jun-23 05:17 UTC.
Position N 31°09' E 124°03'.
Warning: this ship's position is 24 days out of date.

Length 153 m; draft 8.9 m.

Type: Other ship. MMSI: 248841000.

Date/timePositionNaut miles runAvg speedWind from/ knotsBaromVisibWave heightAir tempDewpointWater temp
2017-May-29 22:25N 31°09' E 124°03'410.2
2017-May-29 21:59N 31°13' E 124°04'610.0
2017-May-29 21:26N 31°18' E 124°06'5 9.9
2017-May-29 20:56N 31°23' E 124°08'27 9.3
2017-May-29 18:03N 31°49' E 124°16'2 8.7
2017-May-29 17:48N 31°51' E 124°17'2 8.6
2017-May-29 17:30N 31°54' E 124°17'4 8.5
2017-May-29 17:00N 31°58' E 124°19'4 9.0
2017-May-29 16:30N 32°02' E 124°20'6 9.5
2017-May-29 15:50N 32°08' E 124°22'1310.4
2017-May-29 14:37N 32°20' E 124°26'211.3
2017-May-29 14:28N 32°22' E 124°27'1912.0
2017-May-29 12:51N 32°41' E 124°33'412.5
2017-May-29 12:30N 32°45' E 124°34'712.6
2017-May-29 11:58N 32°51' E 124°37'612.8
2017-May-29 11:30N 32°57' E 124°39'612.5
2017-May-29 11:00N 33°03' E 124°41'612.3
2017-May-29 10:29N 33°09' E 124°43'812.1
2017-May-29 09:49N 33°17' E 124°46'712.0
2017-May-29 09:17N 33°23' E 124°48'411.7
2017-May-29 08:59N 33°27' E 124°49'511.5
2017-May-29 08:30N 33°32' E 124°51'611.4
2017-May-29 07:59N 33°37' E 124°53'511.1
2017-May-29 07:30N 33°43' E 124°54'511.0
2017-May-29 07:00N 33°48' E 124°56'611.0
2017-May-29 06:27N 33°54' E 124°58'510.5
2017-May-29 05:59N 33°59' E 124°60'510.0
2017-May-29 05:30N 34°03' E 124°59'610.8
2017-May-29 04:59N 34°08' E 124°56'511.3
2017-May-29 04:30N 34°13' E 124°53'611.4
2017-May-29 03:57N 34°19' E 124°51'22911.4
2017-May-28 07:46N 37°43' E 122°41'311.9
2017-May-28 07:30N 37°45' E 122°37'2511.3
2017-May-28 05:17N 37°58' E 122°10'310.7
2017-May-28 05:00N 37°59' E 122°07'510.3
2017-May-28 04:30N 38°02' E 122°01'510.3
2017-May-28 03:59N 38°04' E 121°55'510.1
2017-May-28 03:30N 38°07' E 121°50'510.5
2017-May-28 03:00N 38°09' E 121°44'510.4
2017-May-28 02:30N 38°12' E 121°38'510.7
2017-May-28 02:00N 38°15' E 121°32'510.7
2017-May-28 01:30N 38°17' E 121°26'611.2
2017-May-28 01:00N 38°21' E 121°21'611.7
2017-May-28 00:29N 38°24' E 121°14'611.6
2017-May-28 00:00N 38°26' E 121°08'6711.5
2017-May-27 18:11N 38°42' E 119°44'510.4
2017-May-27 17:45N 38°42' E 119°39'310.4
2017-May-27 17:29N 38°43' E 119°35'710.3
2017-May-27 16:48N 38°43' E 119°26'81 2.2
2017-May-26 03:02N 38°59' E 117°44'0 0.1
2017-May-26 02:56N 38°59' E 117°44'17 0.4
2017-May-24 05:22N 38°54' E 118°05'0 0.4
2017-May-24 04:47N 38°54' E 118°05'0 0.0
2017-May-24 00:55N 38°54' E 118°05'0 0.1
2017-May-24 00:30N 38°54' E 118°05'0 0.0
2017-May-23 23:59N 38°54' E 118°05'0 0.0
2017-May-23 23:31N 38°54' E 118°05'0 0.0
2017-May-23 23:00N 38°54' E 118°05'0 0.0
2017-May-23 22:17N 38°54' E 118°05'0 0.0
2017-May-23 22:00N 38°54' E 118°05'0 0.0
2017-May-23 21:24N 38°54' E 118°05'0 0.0
2017-May-23 20:47N 38°54' E 118°05'0 0.0
2017-May-23 20:30N 38°54' E 118°05'0 0.0
2017-May-23 19:54N 38°54' E 118°05'0 0.1
2017-May-23 19:24N 38°54' E 118°05'0 0.0
2017-May-23 17:30N 38°54' E 118°05'  
2017-May-21 11:23N 38°42' E 120°30'2012.6
2017-May-21 09:45N 38°36' E 120°56'313.0
2017-May-21 09:30N 38°34' E 120°59'612.8
2017-May-21 09:00N 38°31' E 121°06'712.9
2017-May-21 08:29N 38°28' E 121°14'612.6
2017-May-21 08:00N 38°24' E 121°20'612.4
2017-May-21 07:30N 38°21' E 121°26'612.3
2017-May-21 07:00N 38°17' E 121°33'612.4
2017-May-21 06:30N 38°14' E 121°39'612.4
2017-May-21 06:00N 38°10' E 121°46'612.5
2017-May-21 05:30N 38°06' E 121°52'612.4
2017-May-21 05:00N 38°02' E 121°58'612.5
2017-May-21 04:30N 37°59' E 122°04'612.4
2017-May-21 04:00N 37°55' E 122°11'612.3
2017-May-21 03:29N 37°51' E 122°17'5710.5
2017-May-20 22:03N 37°01' E 122°53'111.5
2017-May-20 21:58N 37°01' E 122°52'  
Track history (hours):
 
Tides and Currents Weather Stations Pressure Air Temp Water Temp Dewpoint Dewpoint Depression Visibility Wind Speed Wind Dir Waves Ship Positions

Gazi

Last reported at 2017-May-29 22:25 UTC. Time now 2017-Jun-23 05:17 UTC.
Position N 31°09' E 124°03'.
Warning: this ship's position is 24 days out of date.

Length 153 m; draft 8.9 m.

Type: Other ship. MMSI: 248841000.

Date/timePositionNaut miles runAvg speedWind from/ knotsBaromVisibWave heightAir tempDewpointWater temp
2017-May-29 22:25N 31°09' E 124°03'410.2
2017-May-29 21:59N 31°13' E 124°04'610.0
2017-May-29 21:26N 31°18' E 124°06'5 9.9
2017-May-29 20:56N 31°23' E 124°08'27 9.3
2017-May-29 18:03N 31°49' E 124°16'2 8.7
2017-May-29 17:48N 31°51' E 124°17'2 8.6
2017-May-29 17:30N 31°54' E 124°17'4 8.5
2017-May-29 17:00N 31°58' E 124°19'4 9.0
2017-May-29 16:30N 32°02' E 124°20'6 9.5
2017-May-29 15:50N 32°08' E 124°22'1310.4
2017-May-29 14:37N 32°20' E 124°26'211.3
2017-May-29 14:28N 32°22' E 124°27'1912.0
2017-May-29 12:51N 32°41' E 124°33'412.5
2017-May-29 12:30N 32°45' E 124°34'712.6
2017-May-29 11:58N 32°51' E 124°37'612.8
2017-May-29 11:30N 32°57' E 124°39'612.5
2017-May-29 11:00N 33°03' E 124°41'612.3
2017-May-29 10:29N 33°09' E 124°43'812.1
2017-May-29 09:49N 33°17' E 124°46'712.0
2017-May-29 09:17N 33°23' E 124°48'411.7
2017-May-29 08:59N 33°27' E 124°49'511.5
2017-May-29 08:30N 33°32' E 124°51'611.4
2017-May-29 07:59N 33°37' E 124°53'511.1
2017-May-29 07:30N 33°43' E 124°54'511.0
2017-May-29 07:00N 33°48' E 124°56'611.0
2017-May-29 06:27N 33°54' E 124°58'510.5
2017-May-29 05:59N 33°59' E 124°60'510.0
2017-May-29 05:30N 34°03' E 124°59'610.8
2017-May-29 04:59N 34°08' E 124°56'511.3
2017-May-29 04:30N 34°13' E 124°53'611.4
2017-May-29 03:57N 34°19' E 124°51'22911.4
2017-May-28 07:46N 37°43' E 122°41'311.9
2017-May-28 07:30N 37°45' E 122°37'2511.3
2017-May-28 05:17N 37°58' E 122°10'310.7
2017-May-28 05:00N 37°59' E 122°07'510.3
2017-May-28 04:30N 38°02' E 122°01'510.3
2017-May-28 03:59N 38°04' E 121°55'510.1
2017-May-28 03:30N 38°07' E 121°50'510.5
2017-May-28 03:00N 38°09' E 121°44'510.4
2017-May-28 02:30N 38°12' E 121°38'510.7
2017-May-28 02:00N 38°15' E 121°32'510.7
2017-May-28 01:30N 38°17' E 121°26'611.2
2017-May-28 01:00N 38°21' E 121°21'611.7
2017-May-28 00:29N 38°24' E 121°14'611.6
2017-May-28 00:00N 38°26' E 121°08'6711.5
2017-May-27 18:11N 38°42' E 119°44'510.4
2017-May-27 17:45N 38°42' E 119°39'310.4
2017-May-27 17:29N 38°43' E 119°35'710.3
2017-May-27 16:48N 38°43' E 119°26'81 2.2
2017-May-26 03:02N 38°59' E 117°44'0 0.1
2017-May-26 02:56N 38°59' E 117°44'17 0.4
2017-May-24 05:22N 38°54' E 118°05'0 0.4
2017-May-24 04:47N 38°54' E 118°05'0 0.0
2017-May-24 00:55N 38°54' E 118°05'0 0.1
2017-May-24 00:30N 38°54' E 118°05'0 0.0
2017-May-23 23:59N 38°54' E 118°05'0 0.0
2017-May-23 23:31N 38°54' E 118°05'0 0.0
2017-May-23 23:00N 38°54' E 118°05'0 0.0
2017-May-23 22:17N 38°54' E 118°05'0 0.0
2017-May-23 22:00N 38°54' E 118°05'0 0.0
2017-May-23 21:24N 38°54' E 118°05'0 0.0
2017-May-23 20:47N 38°54' E 118°05'0 0.0
2017-May-23 20:30N 38°54' E 118°05'0 0.0
2017-May-23 19:54N 38°54' E 118°05'0 0.1
2017-May-23 19:24N 38°54' E 118°05'0 0.0
2017-May-23 17:30N 38°54' E 118°05'  
2017-May-21 11:23N 38°42' E 120°30'2012.6
2017-May-21 09:45N 38°36' E 120°56'313.0
2017-May-21 09:30N 38°34' E 120°59'612.8
2017-May-21 09:00N 38°31' E 121°06'712.9
2017-May-21 08:29N 38°28' E 121°14'612.6
2017-May-21 08:00N 38°24' E 121°20'612.4
2017-May-21 07:30N 38°21' E 121°26'612.3
2017-May-21 07:00N 38°17' E 121°33'612.4
2017-May-21 06:30N 38°14' E 121°39'612.4
2017-May-21 06:00N 38°10' E 121°46'612.5
2017-May-21 05:30N 38°06' E 121°52'612.4
2017-May-21 05:00N 38°02' E 121°58'612.5
2017-May-21 04:30N 37°59' E 122°04'612.4
2017-May-21 04:00N 37°55' E 122°11'612.3
2017-May-21 03:29N 37°51' E 122°17'5710.5
2017-May-20 22:03N 37°01' E 122°53'111.5
2017-May-20 21:58N 37°01' E 122°52'  

Dump ship's entire track history